Time;durP1;ratioP1;P1;durP2;ratioP2;P2;SDS_P1;SDS_P2;PMS_P1;PMS_P2;Temp;Humidity;BMP_temperature;BMP_pressure;BME280_temperature;BME280_humidity;BME280_pressure;Samples;Min_cycle;Max_cycle;Signal;HPM_P1;HPM_P2
2022/02/21 00:00:08;;;;;;;;;;;;;;;7.80;100.00;94902.34;1038982;28;19925;-71
2022/02/21 00:00:38;;;;;;;;;;;;;;;7.87;100.00;94909.91;1034679;28;20655;-72
2022/02/21 00:01:09;;;;;;;;;;;;;;;7.83;100.00;94907.03;1031178;28;19914;-72
2022/02/21 00:01:39;;;;;;;;;;;;;;;7.85;100.00;94878.06;1031510;28;19922;-71
2022/02/21 00:02:09;;;;;;;;;;;;;;;7.82;100.00;94902.09;1035145;28;19998;-71
2022/02/21 00:02:43;;;;;;;;;;;;;;;7.82;100.00;94887.19;1035100;28;19953;-72
2022/02/21 00:03:15;;;;;;;;;;;;;;;7.82;100.00;94891.66;1042980;28;19924;-73
2022/02/21 00:03:46;;;;;;;;;;;;;;;7.82;100.00;94887.19;1039068;28;19940;-72
2022/02/21 00:04:16;;;;;;;;;;;;;;;7.85;100.00;94902.34;1035380;28;19925;-72
2022/02/21 00:04:46;;;;;;;;;;;;;;;7.87;100.00;94866.28;1035563;28;19921;-72
2022/02/21 00:05:19;;;;;;;;;;;;;;;7.89;100.00;94889.53;1030766;28;19917;-72
2022/02/21 00:05:50;;;;;;;;;;;;;;;7.91;100.00;94884.81;1031265;28;19926;-72
2022/02/21 00:06:20;;;;;;;;;;;;;;;7.91;100.00;94896.03;1035097;28;20342;-72
2022/02/21 00:06:50;;;;;;;;;;;;;;;7.89;100.00;94885.09;1023505;28;19930;-71
2022/02/21 00:07:20;;;;;;;;;;;;;;;7.88;100.00;94891.38;1023400;29;19937;-72
2022/02/21 00:07:51;;;;;;;;;;;;;;;7.87;100.00;94887.16;1026892;28;19918;-71
2022/02/21 00:08:21;;;;;;;;;;;;;;;7.94;100.00;94884.28;1027193;28;19992;-70
2022/02/21 00:08:51;;;;;;;;;;;;;;;7.92;100.00;94876.72;1027032;28;20442;-71
2022/02/21 00:09:22;;;;;;;;;;;;;;;7.93;100.00;94883.50;1026910;28;19982;-72
2022/02/21 00:09:52;;;;;;;;;;;;;;;7.96;100.00;94879.56;1030753;28;19975;-71
2022/02/21 00:10:22;;;;;;;;;;;;;;;8.02;100.00;94860.22;1027297;28;20702;-71
2022/02/21 00:10:53;;;;;;;;;;;;;;;8.11;100.00;94853.38;1027171;28;20037;-72
2022/02/21 00:11:26;;;;;;;;;;;;;;;8.13;100.00;94861.75;1026961;28;19918;-72
2022/02/21 00:11:59;;;;;;;;;;;;;;;8.10;100.00;94880.56;1027623;28;19925;-72
2022/02/21 00:12:29;;;;;;;;;;;;;;;8.10;100.00;94877.94;1033112;28;19914;-72
2022/02/21 00:12:59;;;;;;;;;;;;;;;8.08;100.00;94853.94;1040396;28;19921;-73
2022/02/21 00:13:30;;;;;;;;;;;;;;;8.05;100.00;94859.69;1043175;28;19921;-73
2022/02/21 00:14:00;;;;;;;;;;;;;;;8.03;100.00;94861.78;1044063;28;20455;-72
2022/02/21 00:14:30;;;;;;;;;;;;;;;8.00;100.00;94864.94;1043662;28;19924;-71
2022/02/21 00:15:01;;;;;;;;;;;;;;;8.04;100.00;94874.56;1044276;28;20457;-72
2022/02/21 00:15:31;;;;;;;;;;;;;;;8.01;100.00;94874.31;1043090;28;20039;-72
2022/02/21 00:16:02;;;;;;;;;;;;;;;8.00;100.00;94872.75;1039419;28;20285;-73
2022/02/21 00:16:32;;;;;;;;;;;;;;;7.95;100.00;94875.41;1035941;28;19921;-71
2022/02/21 00:17:02;;;;;;;;;;;;;;;7.90;100.00;94873.56;1034940;28;19917;-71
2022/02/21 00:17:33;;;;;;;;;;;;;;;7.93;100.00;94861.81;1039090;28;19917;-71
2022/02/21 00:18:03;;;;;;;;;;;;;;;8.00;100.00;94841.41;1031201;28;19924;-71
2022/02/21 00:18:33;;;;;;;;;;;;;;;7.97;100.00;94847.19;1030962;28;19910;-71
2022/02/21 00:19:04;;;;;;;;;;;;;;;7.96;100.00;94835.16;1029857;28;19921;-69
2022/02/21 00:19:34;;;;;;;;;;;;;;;8.06;100.00;94848.19;1026471;28;20057;-70
2022/02/21 00:20:05;;;;;;;;;;;;;;;8.08;100.00;94851.31;1030976;28;19910;-70
2022/02/21 00:20:35;;;;;;;;;;;;;;;8.06;100.00;94832.50;1031096;28;20288;-72
2022/02/21 00:21:06;;;;;;;;;;;;;;;8.08;100.00;94863.59;1031013;28;20004;-71
2022/02/21 00:21:36;;;;;;;;;;;;;;;8.09;100.00;94863.31;1034765;28;20383;-71
2022/02/21 00:22:06;;;;;;;;;;;;;;;8.04;100.00;94832.75;1035300;28;19925;-71
2022/02/21 00:22:36;;;;;;;;;;;;;;;8.03;100.00;94840.88;1035097;28;19929;-71
2022/02/21 00:23:08;;;;;;;;;;;;;;;8.03;100.00;94848.72;1035062;28;19976;-71
2022/02/21 00:23:38;;;;;;;;;;;;;;;8.03;100.00;94833.81;1035474;28;19924;-71
2022/02/21 00:24:09;;;;;;;;;;;;;;;8.05;100.00;94823.13;1043228;28;19923;-70
2022/02/21 00:24:42;;;;;;;;;;;;;;;8.05;100.00;94828.34;1039614;28;19917;-70
2022/02/21 00:25:12;;;;;;;;;;;;;;;8.02;100.00;94827.03;1039519;28;19925;-72
2022/02/21 00:25:42;;;;;;;;;;;;;;;8.03;100.00;94838.28;1043004;28;19940;-70
2022/02/21 00:26:14;;;;;;;;;;;;;;;8.03;100.00;94848.72;1034334;28;19976;-70
2022/02/21 00:26:45;;;;;;;;;;;;;;;7.98;100.00;94846.13;1039044;28;19913;-71
2022/02/21 00:27:15;;;;;;;;;;;;;;;7.99;100.00;94829.41;1038694;28;19932;-71
2022/02/21 00:27:45;;;;;;;;;;;;;;;7.96;100.00;94846.41;1034954;28;20371;-72
2022/02/21 00:28:16;;;;;;;;;;;;;;;7.93;100.00;94836.47;1034737;28;19928;-72
2022/02/21 00:28:46;;;;;;;;;;;;;;;7.92;100.00;94844.59;1035231;28;19928;-72
2022/02/21 00:29:16;;;;;;;;;;;;;;;7.89;100.00;94840.69;1030941;28;19922;-71
2022/02/21 00:29:47;;;;;;;;;;;;;;;7.87;100.00;94828.94;1034326;28;19928;-71
2022/02/21 00:30:17;;;;;;;;;;;;;;;7.85;100.00;94839.66;1039161;28;20015;-71
2022/02/21 00:30:48;;;;;;;;;;;;;;;7.83;100.00;94828.69;1034835;28;19972;-71
2022/02/21 00:31:18;;;;;;;;;;;;;;;7.83;100.00;94825.28;1034839;28;20004;-70
2022/02/21 00:31:49;;;;;;;;;;;;;;;7.85;100.00;94833.66;1031193;28;19965;-72
2022/02/21 00:32:19;;;;;;;;;;;;;;;7.82;100.00;94808.06;1034542;28;19927;-71
2022/02/21 00:32:50;;;;;;;;;;;;;;;7.79;100.00;94825.84;1035107;28;19921;-71
2022/02/21 00:33:21;;;;;;;;;;;;;;;7.78;100.00;94863.44;1035010;28;19964;-71
2022/02/21 00:33:51;;;;;;;;;;;;;;;7.79;100.00;94812.00;1038972;28;19921;-71
2022/02/21 00:34:21;;;;;;;;;;;;;;;7.80;100.00;94827.38;1034982;28;19927;-71
2022/02/21 00:34:52;;;;;;;;;;;;;;;7.79;100.00;94848.56;1034865;28;20324;-70
2022/02/21 00:35:22;;;;;;;;;;;;;;;7.87;100.00;94853.22;1030720;28;19918;-69
2022/02/21 00:35:52;;;;;;;;;;;;;;;7.87;100.00;94826.31;1026467;28;19962;-70
2022/02/21 00:36:23;;;;;;;;;;;;;;;7.86;100.00;94836.00;1030917;28;19922;-71
2022/02/21 00:36:53;;;;;;;;;;;;;;;7.82;100.00;94828.97;1026891;28;19922;-71
2022/02/21 00:37:23;;;;;;;;;;;;;;;7.83;100.00;94851.41;1026703;28;19926;-72
2022/02/21 00:37:54;;;;;;;;;;;;;;;7.85;100.00;94824.00;1030811;28;19914;-71
2022/02/21 00:38:24;;;;;;;;;;;;;;;7.87;100.00;94819.25;1030920;28;20016;-69
2022/02/21 00:38:58;;;;;;;;;;;;;;;7.87;100.00;94826.31;1035215;28;20560;-70
2022/02/21 00:39:28;;;;;;;;;;;;;;;7.85;100.00;94860.56;1041799;28;19970;-70
2022/02/21 00:39:58;;;;;;;;;;;;;;;7.91;100.00;94840.41;1043190;28;20576;-70
2022/02/21 00:40:29;;;;;;;;;;;;;;;7.91;100.00;94843.78;1038849;28;19921;-70
2022/02/21 00:40:59;;;;;;;;;;;;;;;7.92;100.00;94834.16;1034862;28;19972;-71
2022/02/21 00:41:29;;;;;;;;;;;;;;;7.88;100.00;94820.03;1031012;28;19925;-70
2022/02/21 00:41:59;;;;;;;;;;;;;;;7.86;100.00;94835.22;1034876;28;19925;-71
2022/02/21 00:42:30;;;;;;;;;;;;;;;7.83;100.00;94820.84;1034862;28;19918;-71
2022/02/21 00:43:03;;;;;;;;;;;;;;;7.79;100.00;94831.06;1038976;28;19924;-69
2022/02/21 00:43:33;;;;;;;;;;;;;;;7.83;100.00;94826.06;1034839;28;19917;-72
2022/02/21 00:44:07;;;;;;;;;;;;;;;7.80;100.00;94818.78;1027223;28;19918;-71
2022/02/21 00:44:39;;;;;;;;;;;;;;;7.82;100.00;94834.19;1030674;28;19968;-71
2022/02/21 00:45:09;;;;;;;;;;;;;;;7.79;100.00;94828.44;1032083;28;19910;-71
2022/02/21 00:45:43;;;;;;;;;;;;;;;7.77;100.00;94833.13;1027293;28;19922;-70
2022/02/21 00:46:13;;;;;;;;;;;;;;;7.78;100.00;94808.59;1029813;28;19918;-70
2022/02/21 00:46:43;;;;;;;;;;;;;;;7.75;100.00;94811.75;1022726;29;19922;-72
2022/02/21 00:47:14;;;;;;;;;;;;;;;7.79;100.00;94809.38;1027446;28;19918;-71
2022/02/21 00:47:44;;;;;;;;;;;;;;;7.73;100.00;94826.88;1030663;28;19914;-71
2022/02/21 00:48:14;;;;;;;;;;;;;;;7.73;100.00;94795.56;1034827;28;19989;-70
2022/02/21 00:48:46;;;;;;;;;;;;;;;7.80;100.00;94811.72;1038711;28;19917;-70
2022/02/21 00:49:16;;;;;;;;;;;;;;;7.78;100.00;94833.94;1034950;28;19918;-71
2022/02/21 00:49:47;;;;;;;;;;;;;;;7.87;100.00;94834.16;1030055;28;19922;-71
2022/02/21 00:50:17;;;;;;;;;;;;;;;7.91;100.00;94816.91;1026741;28;19922;-70
2022/02/21 00:50:47;;;;;;;;;;;;;;;7.86;100.00;94815.09;1030999;28;19917;-70
2022/02/21 00:51:17;;;;;;;;;;;;;;;7.84;100.00;94805.97;1038874;28;20456;-71
2022/02/21 00:51:48;;;;;;;;;;;;;;;7.82;100.00;94818.53;1043122;28;19921;-71
2022/02/21 00:52:18;;;;;;;;;;;;;;;7.80;100.00;94801.28;1038971;28;19932;-71
2022/02/21 00:52:49;;;;;;;;;;;;;;;7.89;100.00;94790.28;1034739;28;20011;-70
2022/02/21 00:53:20;;;;;;;;;;;;;;;7.88;100.00;94792.13;1034744;28;19998;-71
2022/02/21 00:53:50;;;;;;;;;;;;;;;7.84;100.00;94808.56;1035054;28;19928;-70
2022/02/21 00:54:20;;;;;;;;;;;;;;;7.89;100.00;94811.19;1043161;28;20305;-70
2022/02/21 00:54:51;;;;;;;;;;;;;;;7.67;100.00;94760.06;1047240;28;19923;-69
2022/02/21 00:55:21;;;;;;;;;;;;;;;7.89;100.00;94803.34;1047550;28;19920;-70
2022/02/21 00:55:51;;;;;;;;;;;;;;;7.89;100.00;94805.94;1042353;28;19991;-70
2022/02/21 00:56:22;;;;;;;;;;;;;;;7.88;100.00;94806.97;1038682;28;19920;-69
2022/02/21 00:56:52;;;;;;;;;;;;;;;7.88;100.00;94802.56;1038702;28;20460;-71
2022/02/21 00:57:22;;;;;;;;;;;;;;;7.87;100.00;94800.19;1034709;28;19917;-72
2022/02/21 00:57:53;;;;;;;;;;;;;;;7.92;100.00;94766.25;1026704;28;20372;-69
2022/02/21 00:58:26;;;;;;;;;;;;;;;7.89;100.00;94811.94;1026604;28;19914;-70
2022/02/21 00:58:56;;;;;;;;;;;;;;;7.91;100.00;94788.16;1026985;28;19981;-71
2022/02/21 00:59:29;;;;;;;;;;;;;;;7.87;100.00;94800.19;1032324;28;19960;-71
2022/02/21 00:59:59;;;;;;;;;;;;;;;7.88;100.00;94801.75;1035192;28;19917;-70
2022/02/21 01:00:30;;;;;;;;;;;;;;;7.86;100.00;94744.59;1034548;28;19913;-68
2022/02/21 01:01:00;;;;;;;;;;;;;;;7.90;100.00;94778.78;1026583;28;20021;-71
2022/02/21 01:01:31;;;;;;;;;;;;;;;7.90;100.00;94794.44;1026464;28;19957;-70
2022/02/21 01:02:01;;;;;;;;;;;;;;;7.91;100.00;94769.88;1030576;28;19925;-70
2022/02/21 01:02:32;;;;;;;;;;;;;;;7.91;100.00;94782.94;1034637;28;19930;-71
2022/02/21 01:03:02;;;;;;;;;;;;;;;7.91;100.00;94777.72;1034736;28;19949;-69
2022/02/21 01:03:33;;;;;;;;;;;;;;;7.90;100.00;94784.00;1033025;28;19914;-71
2022/02/21 01:04:03;;;;;;;;;;;;;;;7.87;100.00;94779.31;1027698;28;19926;-72
2022/02/21 01:04:33;;;;;;;;;;;;;;;7.89;100.00;94782.44;1036894;28;19940;-71
2022/02/21 01:05:04;;;;;;;;;;;;;;;7.87;100.00;94781.91;1041984;28;20436;-70
2022/02/21 01:05:34;;;;;;;;;;;;;;;7.86;100.00;94768.09;1034453;28;20318;-71
2022/02/21 01:06:05;;;;;;;;;;;;;;;7.85;100.00;94770.97;1035775;28;20434;-71
2022/02/21 01:06:35;;;;;;;;;;;;;;;7.84;100.00;94792.91;1030992;28;20473;-71
2022/02/21 01:07:05;;;;;;;;;;;;;;;7.85;100.00;94789.25;1034638;28;20399;-71
2022/02/21 01:07:36;;;;;;;;;;;;;;;7.88;100.00;94773.03;1030336;28;20013;-71
2022/02/21 01:08:08;;;;;;;;;;;;;;;7.88;100.00;94797.34;1026503;28;19915;-71
2022/02/21 01:08:38;;;;;;;;;;;;;;;7.92;100.00;94764.41;1029799;28;20021;-71
2022/02/21 01:09:09;;;;;;;;;;;;;;;7.95;100.00;94776.94;1030543;28;19924;-69
2022/02/21 01:09:39;;;;;;;;;;;;;;;7.97;100.00;94763.59;1030203;28;19918;-70
2022/02/21 01:10:09;;;;;;;;;;;;;;;7.99;100.00;94764.09;1034688;28;19969;-71
2022/02/21 01:10:40;;;;;;;;;;;;;;;7.97;100.00;94763.59;1041572;28;19943;-71
2022/02/21 01:11:11;;;;;;;;;;;;;;;7.96;100.00;94754.19;1047114;28;19923;-71
2022/02/21 01:11:42;;;;;;;;;;;;;;;7.96;100.00;94786.31;1038407;28;19913;-71
2022/02/21 01:12:15;;;;;;;;;;;;;;;7.96;100.00;94767.25;1034581;28;19913;-70
2022/02/21 01:12:45;;;;;;;;;;;;;;;7.93;100.00;94755.50;1026476;28;19920;-71
2022/02/21 01:13:15;;;;;;;;;;;;;;;7.93;100.00;94770.41;1030454;28;19944;-71
2022/02/21 01:13:46;;;;;;;;;;;;;;;7.93;100.00;94752.91;1026176;28;19921;-70
2022/02/21 01:14:16;;;;;;;;;;;;;;;7.92;100.00;94761.00;1038393;28;19913;-69
2022/02/21 01:14:46;;;;;;;;;;;;;;;7.90;100.00;94757.88;1038762;28;19917;-70
2022/02/21 01:15:16;;;;;;;;;;;;;;;7.88;100.00;94759.97;1030396;28;19952;-71
2022/02/21 01:15:49;;;;;;;;;;;;;;;7.91;100.00;94769.88;1026366;28;20351;-71
2022/02/21 01:16:20;;;;;;;;;;;;;;;7.95;100.00;94742.97;1030451;28;19925;-70
2022/02/21 01:16:50;;;;;;;;;;;;;;;7.93;100.00;94755.50;1027185;28;19930;-70
2022/02/21 01:17:22;;;;;;;;;;;;;;;7.95;100.00;94740.34;1030902;28;19949;-70
2022/02/21 01:17:52;;;;;;;;;;;;;;;7.99;100.00;94741.38;1037910;28;19917;-70
2022/02/21 01:18:23;;;;;;;;;;;;;;;7.97;100.00;94742.69;1033621;28;19925;-71
2022/02/21 01:18:53;;;;;;;;;;;;;;;7.96;100.00;94749.75;1034276;28;19921;-71
2022/02/21 01:19:23;;;;;;;;;;;;;;;7.96;100.00;94736.69;1032926;28;20259;-71
2022/02/21 01:19:54;;;;;;;;;;;;;;;7.95;100.00;94737.75;1025669;28;20008;-70
2022/02/21 01:20:24;;;;;;;;;;;;;;;7.95;100.00;94776.16;1026537;28;19941;-72
2022/02/21 01:20:54;;;;;;;;;;;;;;;7.95;100.00;94729.13;1030581;28;19921;-72
2022/02/21 01:21:25;;;;;;;;;;;;;;;7.95;100.00;94732.53;1030533;28;19918;-70
2022/02/21 01:21:55;;;;;;;;;;;;;;;7.98;100.00;94707.66;1034609;28;19925;-71
2022/02/21 01:22:25;;;;;;;;;;;;;;;7.98;100.00;94715.50;1030371;28;20459;-71
2022/02/21 01:22:55;;;;;;;;;;;;;;;7.96;100.00;94704.56;1022613;29;19923;-71
2022/02/21 01:23:26;;;;;;;;;;;;;;;7.92;100.00;94708.78;1022366;28;19923;-71
2022/02/21 01:23:56;;;;;;;;;;;;;;;7.88;100.00;94697.28;1025819;28;20454;-71
2022/02/21 01:24:30;;;;;;;;;;;;;;;7.86;100.00;94720.31;1031351;28;19921;-71
2022/02/21 01:25:00;;;;;;;;;;;;;;;7.87;100.00;94706.19;1039139;28;19979;-72
2022/02/21 01:25:30;;;;;;;;;;;;;;;7.84;100.00;94710.09;1037791;28;19909;-70
2022/02/21 01:26:01;;;;;;;;;;;;;;;7.92;100.00;94700.94;1037668;28;20394;-71
2022/02/21 01:26:31;;;;;;;;;;;;;;;7.91;100.00;94701.97;1038642;28;20039;-71
2022/02/21 01:27:01;;;;;;;;;;;;;;;7.87;100.00;94695.72;1038520;28;20405;-71
2022/02/21 01:27:32;;;;;;;;;;;;;;;7.86;100.00;94720.31;1034526;28;19917;-69
2022/02/21 01:28:02;;;;;;;;;;;;;;;7.91;100.00;94704.59;1034591;28;20333;-69
2022/02/21 01:28:32;;;;;;;;;;;;;;;7.87;100.00;94698.34;1034333;28;19921;-70
2022/02/21 01:29:03;;;;;;;;;;;;;;;7.88;100.00;94692.06;1035701;28;19928;-70
2022/02/21 01:29:33;;;;;;;;;;;;;;;7.89;100.00;94680.59;1034042;28;19924;-70
2022/02/21 01:30:04;;;;;;;;;;;;;;;7.90;100.00;94701.19;1034589;28;20004;-70
2022/02/21 01:30:34;;;;;;;;;;;;;;;7.84;100.00;94683.22;1038767;28;19913;-71
2022/02/21 01:31:05;;;;;;;;;;;;;;;7.82;100.00;94665.22;1034533;28;20413;-70
2022/02/21 01:31:35;;;;;;;;;;;;;;;7.82;100.00;94680.88;1033944;28;19925;-70
2022/02/21 01:32:06;;;;;;;;;;;;;;;7.80;100.00;94682.97;1033963;28;19924;-70
2022/02/21 01:32:36;;;;;;;;;;;;;;;7.78;100.00;94693.72;1028984;28;20079;-68
2022/02/21 01:33:06;;;;;;;;;;;;;;;7.87;100.00;94659.94;1031740;28;19961;-69
2022/02/21 01:33:37;;;;;;;;;;;;;;;7.88;100.00;94671.97;1035946;28;19987;-70
2022/02/21 01:34:07;;;;;;;;;;;;;;;7.88;100.00;94674.59;1037722;28;19925;-70
2022/02/21 01:34:37;;;;;;;;;;;;;;;7.90;100.00;94666.47;1041791;28;19933;-72
2022/02/21 01:35:07;;;;;;;;;;;;;;;7.92;100.00;94669.59;1041973;28;20721;-71
2022/02/21 01:35:38;;;;;;;;;;;;;;;7.89;100.00;94665.69;1038267;28;20019;-72
2022/02/21 01:36:11;;;;;;;;;;;;;;;7.91;100.00;94660.19;1034623;28;19914;-72
2022/02/21 01:36:41;;;;;;;;;;;;;;;7.89;100.00;94672.75;1038442;28;19929;-71
2022/02/21 01:37:11;;;;;;;;;;;;;;;7.87;100.00;94664.41;1038664;28;19924;-71
2022/02/21 01:37:42;;;;;;;;;;;;;;;7.86;100.00;94644.56;1027833;28;20273;-71
2022/02/21 01:38:12;;;;;;;;;;;;;;;7.85;100.00;94666.50;1026522;28;19913;-70
2022/02/21 01:38:43;;;;;;;;;;;;;;;7.86;100.00;94694.19;1033688;28;19914;-71
2022/02/21 01:39:13;;;;;;;;;;;;;;;7.95;100.00;94666.44;1036912;28;19909;-71
2022/02/21 01:39:43;;;;;;;;;;;;;;;7.94;100.00;94628.31;1041610;28;19943;-72
2022/02/21 01:40:15;;;;;;;;;;;;;;;7.94;100.00;94657.03;1042785;28;19909;-72
2022/02/21 01:40:46;;;;;;;;;;;;;;;7.95;100.00;94667.22;1038336;28;19921;-72
2022/02/21 01:41:16;;;;;;;;;;;;;;;7.94;100.00;94677.94;1030810;28;19952;-72
2022/02/21 01:41:47;;;;;;;;;;;;;;;7.96;100.00;94639.25;1026654;28;19977;-71
2022/02/21 01:42:17;;;;;;;;;;;;;;;7.96;100.00;94644.50;1024808;28;20419;-71
2022/02/21 01:42:47;;;;;;;;;;;;;;;7.93;100.00;94652.88;1026485;28;20001;-71
2022/02/21 01:43:18;;;;;;;;;;;;;;;7.93;100.00;94585.72;1030410;28;20017;-71
2022/02/21 01:43:48;;;;;;;;;;;;;;;7.95;100.00;94638.50;1034618;28;19914;-71
2022/02/21 01:44:19;;;;;;;;;;;;;;;7.92;100.00;94680.81;1038607;28;19920;-71
2022/02/21 01:44:49;;;;;;;;;;;;;;;7.96;100.00;94634.03;1042351;28;19980;-72
2022/02/21 01:45:19;;;;;;;;;;;;;;;7.95;100.00;94628.03;1041046;28;19986;-71
2022/02/21 01:45:49;;;;;;;;;;;;;;;7.99;100.00;94636.13;1036161;28;19909;-71
2022/02/21 01:46:20;;;;;;;;;;;;;;;7.95;100.00;94648.94;1028775;28;19919;-71
2022/02/21 01:46:53;;;;;;;;;;;;;;;7.96;100.00;94621.75;1030612;28;19921;-70
2022/02/21 01:47:23;;;;;;;;;;;;;;;7.96;100.00;94642.66;1030789;28;20795;-71
2022/02/21 01:47:53;;;;;;;;;;;;;;;7.94;100.00;94633.53;1031293;28;19913;-71
2022/02/21 01:48:23;;;;;;;;;;;;;;;7.91;100.00;94623.63;1031612;28;19914;-71
2022/02/21 01:48:54;;;;;;;;;;;;;;;7.89;100.00;94652.63;1030550;28;19909;-71
2022/02/21 01:49:24;;;;;;;;;;;;;;;7.90;100.00;94641.13;1033449;28;20359;-71
2022/02/21 01:49:54;;;;;;;;;;;;;;;7.99;100.00;94646.56;1037846;28;19906;-70
2022/02/21 01:50:25;;;;;;;;;;;;;;;7.98;100.00;94631.91;1037505;28;19910;-72
2022/02/21 01:50:55;;;;;;;;;;;;;;;7.96;100.00;94611.31;1034710;28;19914;-71
2022/02/21 01:51:25;;;;;;;;;;;;;;;8.01;100.00;94636.59;1038161;28;20385;-71
2022/02/21 01:51:56;;;;;;;;;;;;;;;8.00;100.00;94617.53;1030758;28;19910;-71
2022/02/21 01:52:26;;;;;;;;;;;;;;;8.00;100.00;94632.44;1022957;29;19910;-71
2022/02/21 01:52:58;;;;;;;;;;;;;;;8.00;100.00;94622.00;1026896;28;19910;-71
2022/02/21 01:53:31;;;;;;;;;;;;;;;8.03;100.00;94611.00;1027854;28;20466;-70
2022/02/21 01:54:05;;;;;;;;;;;;;;;8.04;100.00;94612.53;1031256;28;20429;-71
2022/02/21 01:54:35;;;;;;;;;;;;;;;8.06;100.00;94620.91;1031294;28;19921;-71
2022/02/21 01:55:06;;;;;;;;;;;;;;;8.02;100.00;94628.50;1022808;29;20523;-71
2022/02/21 01:55:36;;;;;;;;;;;;;;;8.01;100.00;94602.63;1022116;28;19929;-71
2022/02/21 01:56:07;;;;;;;;;;;;;;;8.00;100.00;94609.69;1031399;28;19920;-71
2022/02/21 01:56:37;;;;;;;;;;;;;;;8.00;100.00;94603.69;1035535;28;19917;-71
2022/02/21 01:57:08;;;;;;;;;;;;;;;7.98;100.00;94600.56;1035433;28;20593;-71
2022/02/21 01:57:40;;;;;;;;;;;;;;;8.06;100.00;94617.50;1031282;28;20016;-72
2022/02/21 01:58:10;;;;;;;;;;;;;;;8.09;100.00;94593.47;1030930;28;20555;-71
2022/02/21 01:58:41;;;;;;;;;;;;;;;8.10;100.00;94595.78;1035310;28;19917;-71
2022/02/21 01:59:11;;;;;;;;;;;;;;;8.18;100.00;94621.34;1036728;28;19948;-70
2022/02/21 01:59:41;;;;;;;;;;;;;;;8.17;100.00;94622.38;1038773;28;19983;-69
2022/02/21 02:00:15;;;;;;;;;;;;;;;8.16;100.00;94605.13;1034859;28;19925;-71
2022/02/21 02:00:45;;;;;;;;;;;;;;;8.16;100.00;94610.38;1039451;28;19952;-69
2022/02/21 02:01:16;;;;;;;;;;;;;;;8.16;100.00;94584.25;1039548;28;19919;-70
2022/02/21 02:01:46;;;;;;;;;;;;;;;8.15;100.00;94603.59;1035873;28;19918;-71
2022/02/21 02:02:17;;;;;;;;;;;;;;;8.15;100.00;94611.44;1031285;28;19972;-71
2022/02/21 02:02:47;;;;;;;;;;;;;;;8.15;100.00;94613.22;1031597;28;19928;-72
2022/02/21 02:03:17;;;;;;;;;;;;;;;8.14;100.00;94594.16;1027569;28;19970;-71
2022/02/21 02:03:48;;;;;;;;;;;;;;;8.17;100.00;94611.13;1031232;28;19922;-71
2022/02/21 02:04:18;;;;;;;;;;;;;;;8.10;100.00;94593.16;1033658;28;19989;-71
2022/02/21 02:04:48;;;;;;;;;;;;;;;8.10;100.00;94587.16;1027500;28;19918;-71
2022/02/21 02:05:21;;;;;;;;;;;;;;;8.20;100.00;94611.38;1027460;28;19918;-71
2022/02/21 02:05:51;;;;;;;;;;;;;;;8.21;100.00;94606.91;1027515;28;19938;-71
2022/02/21 02:06:21;;;;;;;;;;;;;;;8.23;100.00;94589.13;1032083;28;19918;-71
2022/02/21 02:06:52;;;;;;;;;;;;;;;8.22;100.00;94551.78;1027844;28;20363;-69
2022/02/21 02:07:22;;;;;;;;;;;;;;;8.18;100.00;94582.13;1032757;28;20437;-70
2022/02/21 02:07:53;;;;;;;;;;;;;;;8.21;100.00;94597.25;1044714;28;19913;-71
2022/02/21 02:08:23;;;;;;;;;;;;;;;8.19;100.00;94603.81;1044256;28;19928;-72
2022/02/21 02:08:53;;;;;;;;;;;;;;;8.20;100.00;94589.69;1040399;28;19913;-72
2022/02/21 02:09:24;;;;;;;;;;;;;;;8.18;100.00;94586.56;1036628;28;19930;-71
2022/02/21 02:09:54;;;;;;;;;;;;;;;8.15;100.00;94577.47;1035651;28;20378;-72
2022/02/21 02:10:26;;;;;;;;;;;;;;;8.13;100.00;94592.63;1036247;28;20403;-72
2022/02/21 02:10:57;;;;;;;;;;;;;;;8.18;100.00;94597.00;1036503;28;19973;-71
2022/02/21 02:11:28;;;;;;;;;;;;;;;8.17;100.00;94591.00;1039465;28;20027;-73
2022/02/21 02:11:58;;;;;;;;;;;;;;;8.19;100.00;94554.94;1040641;28;19948;-71
2022/02/21 02:12:28;;;;;;;;;;;;;;;8.19;100.00;94578.47;1039842;28;19905;-71
2022/02/21 02:12:59;;;;;;;;;;;;;;;8.16;100.00;94579.00;1043905;28;19905;-71
2022/02/21 02:13:29;;;;;;;;;;;;;;;8.17;100.00;94598.06;1038940;28;19914;-71
2022/02/21 02:13:59;;;;;;;;;;;;;;;8.16;100.00;94578.22;1027648;28;19906;-71
2022/02/21 02:14:33;;;;;;;;;;;;;;;8.11;100.00;94584.25;1023452;28;20013;-72
2022/02/21 02:15:03;;;;;;;;;;;;;;;8.05;100.00;94577.56;1030812;28;19965;-72
2022/02/21 02:15:34;;;;;;;;;;;;;;;8.04;100.00;94595.03;1028056;28;20319;-72
2022/02/21 02:16:04;;;;;;;;;;;;;;;8.03;100.00;94566.59;1031863;28;19965;-72
2022/02/21 02:16:35;;;;;;;;;;;;;;;8.07;100.00;94585.88;1031441;28;19914;-71
2022/02/21 02:17:06;;;;;;;;;;;;;;;8.07;100.00;94559.75;1031574;28;20316;-71
2022/02/21 02:17:36;;;;;;;;;;;;;;;8.11;100.00;94570.44;1039707;28;20389;-71
2022/02/21 02:18:07;;;;;;;;;;;;;;;8.08;100.00;94592.69;1035302;28;19914;-70
2022/02/21 02:18:40;;;;;;;;;;;;;;;8.12;100.00;94553.72;1028796;28;19925;-71
2022/02/21 02:19:10;;;;;;;;;;;;;;;8.17;100.00;94543.97;1031206;28;19921;-71
2022/02/21 02:19:41;;;;;;;;;;;;;;;8.13;100.00;94563.88;1031647;28;20005;-68
2022/02/21 02:20:11;;;;;;;;;;;;;;;8.11;100.00;94555.53;1035424;28;20506;-71
2022/02/21 02:20:42;;;;;;;;;;;;;;;8.08;100.00;94560.53;1037646;28;20027;-70
2022/02/21 02:21:16;;;;;;;;;;;;;;;8.11;100.00;94558.13;1039543;28;20664;-69
2022/02/21 02:21:47;;;;;;;;;;;;;;;8.10;100.00;94574.09;1035962;28;19922;-71
2022/02/21 02:22:18;;;;;;;;;;;;;;;8.08;100.00;94561.34;1037347;28;19956;-71
2022/02/21 02:22:49;;;;;;;;;;;;;;;8.11;100.00;94555.53;1038509;28;19921;-72
2022/02/21 02:23:21;;;;;;;;;;;;;;;8.10;100.00;94569.66;1036328;28;19925;-71
2022/02/21 02:23:52;;;;;;;;;;;;;;;8.12;100.00;94570.16;1035295;28;19914;-71
2022/02/21 02:24:23;;;;;;;;;;;;;;;8.11;100.00;94534.63;1035385;28;19918;-71
2022/02/21 02:24:53;;;;;;;;;;;;;;;8.13;100.00;94501.19;1039623;28;19921;-71
2022/02/21 02:25:23;;;;;;;;;;;;;;;8.18;100.00;94556.00;1043765;28;19921;-71
2022/02/21 02:25:57;;;;;;;;;;;;;;;8.16;100.00;94537.22;1045308;28;20409;-70
2022/02/21 02:26:30;;;;;;;;;;;;;;;8.17;100.00;94554.44;1043654;28;19960;-72
2022/02/21 02:27:00;;;;;;;;;;;;;;;8.16;100.00;94542.44;1039503;28;19960;-71
2022/02/21 02:27:30;;;;;;;;;;;;;;;8.13;100.00;94544.81;1031345;28;19913;-71
2022/02/21 02:28:00;;;;;;;;;;;;;;;8.12;100.00;94533.59;1027267;28;19914;-72
2022/02/21 02:28:31;;;;;;;;;;;;;;;8.18;100.00;94519.44;1027263;28;19925;-70
2022/02/21 02:29:01;;;;;;;;;;;;;;;8.15;100.00;94534.84;1026623;28;19918;-72
2022/02/21 02:29:31;;;;;;;;;;;;;;;8.16;100.00;94520.75;1026728;28;19933;-71
2022/02/21 02:30:02;;;;;;;;;;;;;;;8.16;100.00;94531.97;1031435;28;20393;-71
2022/02/21 02:30:32;;;;;;;;;;;;;;;8.17;100.00;94512.63;1031382;28;20475;-70
2022/02/21 02:31:03;;;;;;;;;;;;;;;8.19;100.00;94528.03;1035436;28;19991;-71
2022/02/21 02:31:33;;;;;;;;;;;;;;;8.18;100.00;94527.28;1031468;28;19921;-71
2022/02/21 02:32:04;;;;;;;;;;;;;;;8.20;100.00;94521.75;1036053;28;20335;-71
2022/02/21 02:32:34;;;;;;;;;;;;;;;8.19;100.00;94528.81;1031552;28;19918;-70
2022/02/21 02:33:04;;;;;;;;;;;;;;;8.18;100.00;94529.88;1031607;28;19918;-71
2022/02/21 02:33:37;;;;;;;;;;;;;;;8.19;100.00;94533.28;1031715;28;19988;-70
2022/02/21 02:34:10;;;;;;;;;;;;;;;8.20;100.00;94532.97;1028602;28;19922;-72
2022/02/21 02:34:41;;;;;;;;;;;;;;;8.24;100.00;94527.97;1036032;28;19910;-70
2022/02/21 02:35:11;;;;;;;;;;;;;;;8.23;100.00;94534.25;1035188;28;19925;-71
2022/02/21 02:35:42;;;;;;;;;;;;;;;8.22;100.00;94558.84;1031810;28;19914;-71
2022/02/21 02:36:12;;;;;;;;;;;;;;;8.24;100.00;94518.28;1035046;28;20294;-69
2022/02/21 02:36:46;;;;;;;;;;;;;;;8.21;100.00;94526.69;1035887;28;19914;-71
2022/02/21 02:37:18;;;;;;;;;;;;;;;8.32;100.00;94537.84;1035922;28;19920;-71
2022/02/21 02:37:48;;;;;;;;;;;;;;;8.31;100.00;94517.97;1036927;28;20269;-72
2022/02/21 02:38:19;;;;;;;;;;;;;;;8.30;100.00;94507.81;1031609;28;19910;-72
2022/02/21 02:38:52;;;;;;;;;;;;;;;8.26;100.00;94510.97;1032043;28;19914;-70
2022/02/21 02:39:25;;;;;;;;;;;;;;;8.26;100.00;94538.94;1035431;28;19913;-70
2022/02/21 02:39:57;;;;;;;;;;;;;;;8.24;100.00;94530.59;1031375;28;19906;-71